createdAt,value
2019-04-01T00:01:53.389Z,3.13
2019-04-01T00:04:20.250Z,2.70
2019-04-01T00:06:47.342Z,2.90
2019-04-01T00:09:14.406Z,2.90
2019-04-01T00:11:41.397Z,3.60
2019-04-01T00:14:08.250Z,3.43
2019-04-01T00:16:35.507Z,2.30
2019-04-01T00:19:03.673Z,2.77
2019-04-01T00:21:31.071Z,2.73
2019-04-01T00:23:57.929Z,3.67
2019-04-01T00:26:24.782Z,3.40
2019-04-01T00:28:51.678Z,3.27
2019-04-01T00:31:18.545Z,4.63
2019-04-01T00:33:45.444Z,4.07
2019-04-01T00:36:12.424Z,3.23
2019-04-01T00:38:39.312Z,4.57
2019-04-01T00:41:06.209Z,3.37
2019-04-01T00:43:58.606Z,4.13
2019-04-01T00:46:26.219Z,4.20
2019-04-01T00:48:53.130Z,4.30
2019-04-01T00:51:20.217Z,3.97
2019-04-01T00:53:47.109Z,3.80
2019-04-01T00:56:15.220Z,4.20
2019-04-01T00:58:42.076Z,4.63
2019-04-01T01:01:09.130Z,4.30
2019-04-01T01:03:36.007Z,4.03
2019-04-01T01:06:02.970Z,4.30
2019-04-01T01:08:29.831Z,3.40
2019-04-01T01:10:56.689Z,4.40
2019-04-01T01:13:23.660Z,4.20
2019-04-01T01:15:50.641Z,3.17
2019-04-01T01:18:17.770Z,3.53
2019-04-01T01:20:45.740Z,4.20
2019-04-01T01:23:12.597Z,3.93
2019-04-01T01:25:39.476Z,3.40
2019-04-01T01:28:06.644Z,3.60
2019-04-01T01:30:33.690Z,3.47
2019-04-01T01:33:00.569Z,2.60
2019-04-01T01:35:27.409Z,3.00
2019-04-01T01:37:54.245Z,2.50
2019-04-01T01:40:21.119Z,2.23
2019-04-01T01:42:47.989Z,2.30
2019-04-01T01:45:15.124Z,3.00
2019-04-01T01:47:42.218Z,4.00
2019-04-01T01:50:09.221Z,2.90
2019-04-01T01:52:36.090Z,2.80
2019-04-01T01:55:03.324Z,2.40
2019-04-01T01:57:31.304Z,2.43
2019-04-01T01:59:58.292Z,2.20
2019-04-01T02:02:25.345Z,2.10
2019-04-01T02:04:52.245Z,3.03
2019-04-01T02:07:19.417Z,2.50
2019-04-01T02:09:46.405Z,2.20
2019-04-01T02:12:13.369Z,2.63
2019-04-01T02:14:40.360Z,2.53
2019-04-01T02:17:07.495Z,2.20
2019-04-01T02:19:34.399Z,2.00
2019-04-01T02:22:01.506Z,2.20
2019-04-01T02:24:28.424Z,2.33
2019-04-01T02:26:55.294Z,2.10
2019-04-01T02:29:22.262Z,2.27
2019-04-01T02:31:49.104Z,2.30
2019-04-01T02:34:16.314Z,2.50
2019-04-01T02:36:43.174Z,2.30
2019-04-01T02:39:10.051Z,2.20
2019-04-01T02:41:36.883Z,2.33
2019-04-01T02:44:03.783Z,2.13
2019-04-01T02:46:30.689Z,2.37
2019-04-01T02:48:57.668Z,2.50
2019-04-01T02:51:24.629Z,2.30
2019-04-01T02:53:51.482Z,2.70
2019-04-01T02:56:18.369Z,3.17
2019-04-01T02:58:45.333Z,3.47
2019-04-01T03:01:12.245Z,3.13
2019-04-01T03:03:39.091Z,3.80
2019-04-01T03:06:07.355Z,3.17
2019-04-01T03:08:34.189Z,3.50
2019-04-01T03:11:01.301Z,3.30
2019-04-01T03:13:28.158Z,2.97
2019-04-01T03:15:55.015Z,2.80
2019-04-01T03:18:21.970Z,2.63
2019-04-01T03:20:48.873Z,3.07
2019-04-01T03:23:16.008Z,2.37
2019-04-01T03:25:42.889Z,2.60
2019-04-01T03:28:09.745Z,3.33
2019-04-01T03:30:36.727Z,2.53
2019-04-01T03:33:03.946Z,3.83
2019-04-01T03:35:30.813Z,2.83
2019-04-01T03:37:57.669Z,3.77
2019-04-01T03:40:24.540Z,2.43
2019-04-01T03:42:51.521Z,2.53
2019-04-01T03:45:18.590Z,2.90
2019-04-01T03:47:45.441Z,2.70
2019-04-01T03:50:12.727Z,3.10
2019-04-01T03:52:39.694Z,2.93
2019-04-01T03:55:06.567Z,2.90
2019-04-01T03:57:33.445Z,3.40
2019-04-01T04:00:01.154Z,2.93
2019-04-01T04:02:28.066Z,3.70
2019-04-01T04:04:54.922Z,3.00
2019-04-01T04:07:21.803Z,4.00
2019-04-01T04:09:48.685Z,4.30
2019-04-01T04:12:15.562Z,3.87
2019-04-01T04:14:42.690Z,3.50
2019-04-01T04:17:09.593Z,4.27
2019-04-01T04:19:36.589Z,3.80
2019-04-01T04:22:03.579Z,4.57
2019-04-01T04:24:30.478Z,3.50
2019-04-01T04:26:57.357Z,3.43
2019-04-01T04:29:24.314Z,4.20
2019-04-01T04:31:51.202Z,4.70
2019-04-01T04:34:18.159Z,4.30
2019-04-01T04:36:45.024Z,3.97
2019-04-01T04:39:12.168Z,3.20
2019-04-01T04:41:39.298Z,2.93
2019-04-01T04:44:06.293Z,2.60
2019-04-01T04:46:33.180Z,2.67
2019-04-01T04:49:00.177Z,2.50
2019-04-01T04:51:27.056Z,2.40
2019-04-01T04:53:53.943Z,2.40
2019-04-01T04:56:20.840Z,2.43
2019-04-01T04:58:47.709Z,1.97
2019-04-01T05:01:14.761Z,2.50
2019-04-01T05:03:42.218Z,2.23
2019-04-01T05:06:09.078Z,2.60
2019-04-01T05:08:36.140Z,2.73
2019-04-01T05:11:03.112Z,2.50
2019-04-01T05:13:29.966Z,2.40
2019-04-01T05:15:56.945Z,2.80
2019-04-01T05:18:23.850Z,2.30
2019-04-01T05:20:51.552Z,2.20
2019-04-01T05:23:18.885Z,2.60
2019-04-01T05:25:46.091Z,2.87
2019-04-01T05:28:15.001Z,2.43
2019-04-01T05:30:44.163Z,3.77
2019-04-01T05:33:13.129Z,2.40
2019-04-01T05:35:40.001Z,2.10
2019-04-01T05:38:06.988Z,2.20
2019-04-01T05:40:34.617Z,2.53
2019-04-01T05:43:01.722Z,2.80
2019-04-01T05:45:28.765Z,2.33
2019-04-01T05:47:57.229Z,3.37
2019-04-01T05:50:24.193Z,2.83
2019-04-01T05:52:51.316Z,4.07
2019-04-01T05:55:18.222Z,3.63
2019-04-01T05:57:45.315Z,4.07
2019-04-01T06:00:16.639Z,3.73
2019-04-01T06:02:43.685Z,4.03
2019-04-01T06:05:10.773Z,4.60
2019-04-01T06:07:38.326Z,5.17
2019-04-01T06:10:05.753Z,4.80
2019-04-01T06:12:32.833Z,4.37
2019-04-01T06:14:59.801Z,3.33
2019-04-01T06:17:26.949Z,5.00
2019-04-01T06:19:54.077Z,3.93
2019-04-01T06:22:21.324Z,3.27
2019-04-01T06:24:48.398Z,3.20
2019-04-01T06:27:15.860Z,3.40
2019-04-01T06:29:43.792Z,3.50
2019-04-01T06:32:10.742Z,2.40
2019-04-01T06:34:51.931Z,2.60
2019-04-01T06:37:06.460Z,3.30
2019-04-01T06:39:33.586Z,3.67
2019-04-01T06:42:00.497Z,2.77
2019-04-01T06:44:27.355Z,3.90
2019-04-01T06:46:54.325Z,3.07
2019-04-01T06:49:21.590Z,2.93
2019-04-01T06:51:48.681Z,2.93
2019-04-01T06:54:15.785Z,2.97
2019-04-01T06:56:42.949Z,3.03
2019-04-01T06:59:10.018Z,3.87
2019-04-01T07:01:36.892Z,3.10
2019-04-01T07:04:03.934Z,2.90
2019-04-01T07:06:31.031Z,2.77
2019-04-01T07:08:57.977Z,3.07
2019-04-01T07:11:25.037Z,2.70
2019-04-01T07:13:52.243Z,2.80
2019-04-01T07:16:19.093Z,2.73
2019-04-01T07:18:46.050Z,3.20
2019-04-01T07:21:13.293Z,2.70
2019-04-01T07:23:40.431Z,3.10
2019-04-01T07:26:07.858Z,3.30
2019-04-01T07:28:34.880Z,3.00
2019-04-01T07:31:01.945Z,3.37
2019-04-01T07:33:29.282Z,3.67
2019-04-01T07:35:56.249Z,3.23
2019-04-01T07:38:23.250Z,3.47
2019-04-01T07:40:50.340Z,3.27
2019-04-01T07:43:17.408Z,3.67
2019-04-01T07:45:44.494Z,3.70
2019-04-01T07:48:12.763Z,4.23
2019-04-01T07:50:40.062Z,4.20
2019-04-01T07:53:07.114Z,4.43
2019-04-01T07:55:34.434Z,4.27
2019-04-01T07:58:01.406Z,3.13
2019-04-01T08:00:29.388Z,3.37
2019-04-01T08:02:56.346Z,3.73
2019-04-01T08:05:25.856Z,3.03
2019-04-01T08:07:52.308Z,2.73
2019-04-01T08:10:19.224Z,3.17
2019-04-01T08:12:46.221Z,3.53
2019-04-01T08:15:13.386Z,3.03
2019-04-01T08:17:40.574Z,3.07
2019-04-01T08:20:07.765Z,3.40
2019-04-01T08:22:34.909Z,3.23
2019-04-01T08:25:02.046Z,3.67
2019-04-01T08:27:29.027Z,3.57
2019-04-01T08:29:56.377Z,3.50
2019-04-01T08:32:23.457Z,4.07
2019-04-01T08:34:50.507Z,3.50
2019-04-01T08:37:17.449Z,3.93
2019-04-01T08:39:44.815Z,3.40
2019-04-01T08:42:12.026Z,3.33
2019-04-01T08:44:39.013Z,4.33
2019-04-01T08:47:05.985Z,3.77
2019-04-01T08:49:33.030Z,3.33
2019-04-01T08:52:00.308Z,3.57
2019-04-01T08:54:27.667Z,3.37
2019-04-01T08:56:54.638Z,3.07
2019-04-01T08:59:22.079Z,3.30
2019-04-01T09:01:49.037Z,3.93
2019-04-01T09:04:16.003Z,3.47
2019-04-01T09:06:42.975Z,3.33
2019-04-01T09:09:10.045Z,3.43
2019-04-01T09:11:38.528Z,3.70
2019-04-01T09:14:05.806Z,4.23
2019-04-01T09:16:33.450Z,4.03
2019-04-01T09:19:00.351Z,3.60
2019-04-01T09:21:27.343Z,4.10
2019-04-01T09:23:54.230Z,3.67
2019-04-01T09:26:21.194Z,3.50
2019-04-01T09:28:48.080Z,3.43
2019-04-01T09:31:15.015Z,3.97
2019-04-01T09:33:42.009Z,3.77
2019-04-01T09:36:08.987Z,3.63
2019-04-01T09:38:35.852Z,3.80
2019-04-01T09:41:03.105Z,3.97
2019-04-01T09:43:29.982Z,4.57
2019-04-01T09:45:56.846Z,4.00
2019-04-01T09:48:23.943Z,4.13
2019-04-01T09:50:50.881Z,3.70
2019-04-01T09:53:17.889Z,4.23
2019-04-01T09:55:44.753Z,3.83
2019-04-01T09:58:11.653Z,4.53
2019-04-01T10:00:38.722Z,4.33
2019-04-01T10:03:05.624Z,4.07
2019-04-01T10:05:32.470Z,4.20
2019-04-01T10:07:59.363Z,4.53
2019-04-01T10:10:26.345Z,4.70
2019-04-01T10:12:53.198Z,4.40
2019-04-01T10:15:21.429Z,4.60
2019-04-01T10:17:48.414Z,4.60
2019-04-01T10:20:16.490Z,4.57
2019-04-01T10:22:43.488Z,4.90
2019-04-01T10:25:10.653Z,4.60
2019-04-01T10:27:37.661Z,4.87
2019-04-01T10:30:07.801Z,4.70
2019-04-01T10:32:34.687Z,4.93
2019-04-01T10:35:01.808Z,5.77
2019-04-01T10:37:28.787Z,5.57
2019-04-01T10:39:55.755Z,5.20
2019-04-01T10:42:23.737Z,5.40
2019-04-01T10:44:50.594Z,4.93
2019-04-01T10:47:17.491Z,5.60
2019-04-01T10:49:44.804Z,5.20
2019-04-01T10:52:11.872Z,5.60
2019-04-01T10:54:38.870Z,5.60
2019-04-01T10:57:05.828Z,6.23
2019-04-01T10:59:32.831Z,5.43
2019-04-01T11:01:59.838Z,5.60
2019-04-01T11:04:26.911Z,5.50
2019-04-01T11:06:54.058Z,6.47
2019-04-01T11:09:21.398Z,6.17
2019-04-01T11:11:48.328Z,5.60
2019-04-01T11:14:15.170Z,5.90
2019-04-01T11:16:42.068Z,6.03
2019-04-01T11:19:09.338Z,6.43
2019-04-01T11:21:37.068Z,6.03
2019-04-01T11:24:07.446Z,6.20
2019-04-01T11:26:36.324Z,6.67
2019-04-01T11:29:01.650Z,7.13
2019-04-01T11:31:28.574Z,6.60
2019-04-01T11:33:56.087Z,7.33
2019-04-01T11:36:23.125Z,7.27
2019-04-01T11:38:50.333Z,6.60
2019-04-01T11:41:17.343Z,6.00
2019-04-01T11:43:44.379Z,6.90
2019-04-01T11:46:12.687Z,6.40
2019-04-01T11:48:40.018Z,7.27
2019-04-01T11:51:07.168Z,6.20
2019-04-01T11:53:34.285Z,6.50
2019-04-01T11:56:01.161Z,6.17
2019-04-01T11:58:28.153Z,7.33
2019-04-01T12:00:55.018Z,7.60
2019-04-01T12:03:22.297Z,7.63
2019-04-01T12:05:49.388Z,6.40
2019-04-01T12:08:16.403Z,6.77
2019-04-01T12:10:43.307Z,6.87
2019-04-01T12:13:10.174Z,6.70
2019-04-01T12:15:37.338Z,7.43
2019-04-01T12:18:04.320Z,6.87
2019-04-01T12:20:31.194Z,6.47
2019-04-01T12:22:58.178Z,6.73
2019-04-01T12:25:25.158Z,6.00
2019-04-01T12:27:52.157Z,7.03
2019-04-01T12:30:19.218Z,7.67
2019-04-01T12:32:46.115Z,6.55
2019-04-01T12:35:13.203Z,6.50
2019-04-01T12:37:40.316Z,6.83
2019-04-01T12:40:07.509Z,7.08
2019-04-01T12:42:34.653Z,6.40
2019-04-01T12:45:02.099Z,6.63
2019-04-01T12:47:29.109Z,6.80
2019-04-01T12:49:55.984Z,6.30
2019-04-01T12:52:23.106Z,7.30
2019-04-01T12:54:49.982Z,6.93
2019-04-01T12:57:18.850Z,7.27
2019-04-01T12:59:46.143Z,6.80
2019-04-01T13:02:13.136Z,7.13
2019-04-01T13:04:39.993Z,6.50
2019-04-01T13:07:06.861Z,7.07
2019-04-01T13:09:33.691Z,7.00
2019-04-01T13:12:00.588Z,7.23
2019-04-01T13:14:27.481Z,6.73
2019-04-01T13:16:54.620Z,6.73
2019-04-01T13:19:21.473Z,7.37
2019-04-01T13:21:48.355Z,6.90
2019-04-01T13:24:15.251Z,6.50
2019-04-01T13:26:42.113Z,6.50
2019-04-01T13:29:09.331Z,6.72
2019-04-01T13:31:36.182Z,6.87
2019-04-01T13:34:03.261Z,6.67
2019-04-01T13:36:30.140Z,7.10
2019-04-01T13:38:57.040Z,7.00
2019-04-01T13:41:25.210Z,7.17
2019-04-01T13:43:52.314Z,6.75
2019-04-01T13:46:19.316Z,7.00
2019-04-01T13:48:57.395Z,6.87
2019-04-01T13:51:15.137Z,7.20
2019-04-01T13:53:42.042Z,6.57
2019-04-01T13:56:10.419Z,6.33
2019-04-01T13:58:39.300Z,6.87
2019-04-01T14:01:07.338Z,6.80
2019-04-01T14:03:34.637Z,6.93
2019-04-01T14:06:01.757Z,6.97
2019-04-01T14:08:28.639Z,7.27
2019-04-01T14:10:55.618Z,7.10
2019-04-01T14:13:22.532Z,6.90
2019-04-01T14:15:51.333Z,6.63
2019-04-01T14:18:18.274Z,6.70
2019-04-01T14:20:45.451Z,6.50
2019-04-01T14:23:12.418Z,6.50
2019-04-01T14:25:39.313Z,6.47
2019-04-01T14:28:06.181Z,6.87
2019-04-01T14:30:33.170Z,6.80
2019-04-01T14:33:00.042Z,6.80
2019-04-01T14:35:27.014Z,6.60
2019-04-01T14:37:53.884Z,6.80
2019-04-01T14:40:20.872Z,6.60
2019-04-01T14:42:47.743Z,6.47
2019-04-01T14:45:14.834Z,9.10
2019-04-01T14:47:55.937Z,9.00
2019-04-01T14:50:11.203Z,7.70
2019-04-01T14:52:38.066Z,7.33
2019-04-01T14:55:05.089Z,7.07
2019-04-01T14:57:31.966Z,6.70
2019-04-01T14:59:58.882Z,6.23
2019-04-01T15:02:25.888Z,6.20
2019-04-01T15:04:52.781Z,6.93
2019-04-01T15:07:19.806Z,6.40
2019-04-01T15:09:46.933Z,6.47
2019-04-01T15:12:14.862Z,7.07
2019-04-01T15:14:41.822Z,6.03
2019-04-01T15:17:08.816Z,7.00
2019-04-01T15:19:35.694Z,7.00
2019-04-01T15:22:02.814Z,6.90
2019-04-01T15:24:29.758Z,6.67
2019-04-01T15:26:56.805Z,6.17
2019-04-01T15:29:23.707Z,6.73
2019-04-01T15:31:50.569Z,5.80
2019-04-01T15:34:17.461Z,6.73
2019-04-01T15:36:44.360Z,6.17
2019-04-01T15:39:13.078Z,6.70
2019-04-01T15:41:39.967Z,5.80
2019-04-01T15:44:09.094Z,6.10
2019-04-01T15:46:36.116Z,6.70
2019-04-01T15:49:02.988Z,6.20
2019-04-01T15:51:30.237Z,6.27
2019-04-01T15:53:57.096Z,6.63
2019-04-01T15:56:24.073Z,6.30
2019-04-01T15:58:51.082Z,6.30
2019-04-01T16:01:18.013Z,5.87
2019-04-01T16:03:44.982Z,5.90
2019-04-01T16:06:11.868Z,6.20
2019-04-01T16:08:38.733Z,5.50
2019-04-01T16:11:05.623Z,6.33
2019-04-01T16:13:32.774Z,5.90
2019-04-01T16:15:59.761Z,6.07
2019-04-01T16:18:26.655Z,5.50
2019-04-01T16:20:55.137Z,6.10
2019-04-01T16:23:22.084Z,6.03
2019-04-01T16:25:48.958Z,6.07
2019-04-01T16:28:15.814Z,6.13
2019-04-01T16:30:42.846Z,5.77
2019-04-01T16:33:10.054Z,6.17
2019-04-01T16:35:36.914Z,5.80
2019-04-01T16:38:03.808Z,6.10
2019-04-01T16:40:30.700Z,5.77
2019-04-01T16:42:57.944Z,5.57
2019-04-01T16:45:24.932Z,6.43
2019-04-01T16:47:51.802Z,5.97
2019-04-01T16:50:18.885Z,5.47
2019-04-01T16:52:45.869Z,6.10
2019-04-01T16:55:13.032Z,6.07
2019-04-01T16:57:40.030Z,6.00
2019-04-01T17:00:09.790Z,5.63
2019-04-01T17:02:36.870Z,5.80
2019-04-01T17:05:04.707Z,5.93
2019-04-01T17:07:31.897Z,5.43
2019-04-01T17:09:58.886Z,5.93
2019-04-01T17:12:26.215Z,5.67
2019-04-01T17:14:54.283Z,6.30
2019-04-01T17:17:21.413Z,5.20
2019-04-01T17:19:48.452Z,5.70
2019-04-01T17:22:15.360Z,5.70
2019-04-01T17:24:42.248Z,5.70
2019-04-01T17:27:10.532Z,6.23
2019-04-01T17:29:38.168Z,5.50
2019-04-01T17:32:05.399Z,5.47
2019-04-01T17:34:32.361Z,5.63
2019-04-01T17:37:01.255Z,5.37
2019-04-01T17:39:28.459Z,5.43
2019-04-01T17:41:55.468Z,5.00
2019-04-01T17:44:23.600Z,5.73
2019-04-01T17:46:50.524Z,5.40
2019-04-01T17:49:17.823Z,5.67
2019-04-01T17:51:44.869Z,5.17
2019-04-01T17:54:11.770Z,5.40
2019-04-01T17:56:38.777Z,5.40
2019-04-01T17:59:05.739Z,6.23
2019-04-01T18:01:32.907Z,5.40
2019-04-01T18:04:01.277Z,5.57
2019-04-01T18:06:29.201Z,5.70
2019-04-01T18:08:56.165Z,5.33
2019-04-01T18:11:23.034Z,5.60
2019-04-01T18:13:50.154Z,5.60
2019-04-01T18:16:17.906Z,5.17
2019-04-01T18:18:44.883Z,5.70
2019-04-01T18:21:11.797Z,5.77
2019-04-01T18:23:38.865Z,5.20
2019-04-01T18:26:05.813Z,5.30
2019-04-01T18:28:33.936Z,5.17
2019-04-01T18:31:00.934Z,5.03
2019-04-01T18:33:28.108Z,4.67
2019-04-01T18:35:55.235Z,5.83
2019-04-01T18:38:22.218Z,5.57
2019-04-01T18:40:49.162Z,5.40
2019-04-01T18:43:17.193Z,5.40
2019-04-01T18:45:44.242Z,5.20
2019-04-01T18:48:14.422Z,5.17
2019-04-01T18:50:40.052Z,4.70
2019-04-01T18:53:07.370Z,5.03
2019-04-01T18:55:34.718Z,5.40
2019-04-01T18:58:01.682Z,5.77
2019-04-01T19:00:29.747Z,5.03
2019-04-01T19:02:56.987Z,5.13
2019-04-01T19:05:24.239Z,5.00
2019-04-01T19:07:52.193Z,5.13
2019-04-01T19:10:19.493Z,4.73
2019-04-01T19:12:47.110Z,5.10
2019-04-01T19:15:14.934Z,4.90
2019-04-01T19:17:43.090Z,5.07
2019-04-01T19:20:11.426Z,5.13
2019-04-01T19:22:39.023Z,4.83
2019-04-01T19:25:07.402Z,4.60
2019-04-01T19:27:34.738Z,5.60
2019-04-01T19:30:01.937Z,4.90
2019-04-01T19:32:29.366Z,5.50
2019-04-01T19:34:56.671Z,5.07
2019-04-01T19:37:24.017Z,5.70
2019-04-01T19:39:52.206Z,4.60
2019-04-01T19:42:21.659Z,4.90
2019-04-01T19:44:48.876Z,5.20
2019-04-01T19:47:16.293Z,5.47
2019-04-01T19:49:43.308Z,5.63
2019-04-01T19:52:10.453Z,5.20
2019-04-01T19:54:37.606Z,4.80
2019-04-01T19:57:04.762Z,5.03
2019-04-01T19:59:31.828Z,5.03
2019-04-01T20:01:59.013Z,5.03
2019-04-01T20:04:26.344Z,4.80
2019-04-01T20:06:53.241Z,5.20
2019-04-01T20:09:20.114Z,4.87
2019-04-01T20:11:47.149Z,4.97
2019-04-01T20:14:14.080Z,5.40
2019-04-01T20:16:41.489Z,5.20
2019-04-01T20:19:08.469Z,5.10
2019-04-01T20:21:35.383Z,5.67
2019-04-01T20:24:02.583Z,4.97
2019-04-01T20:26:29.702Z,5.33
2019-04-01T20:28:56.598Z,5.67
2019-04-01T20:31:23.512Z,5.27
2019-04-01T20:33:50.520Z,5.57
2019-04-01T20:36:27.847Z,5.83
2019-04-01T20:38:46.590Z,5.20
2019-04-01T20:41:13.488Z,5.37
2019-04-01T20:43:41.547Z,6.20
2019-04-01T20:46:08.457Z,5.17
2019-04-01T20:48:35.363Z,6.40
2019-04-01T20:51:02.333Z,5.37
2019-04-01T20:53:29.255Z,5.27
2019-04-01T20:55:56.237Z,5.93
2019-04-01T20:58:23.553Z,5.70
2019-04-01T21:00:51.030Z,5.27
2019-04-01T21:03:18.285Z,5.53
2019-04-01T21:05:45.449Z,5.13
2019-04-01T21:08:12.942Z,5.60
2019-04-01T21:10:40.177Z,5.60
2019-04-01T21:13:07.449Z,5.47
2019-04-01T21:15:34.957Z,5.83
2019-04-01T21:18:02.122Z,6.47
2019-04-01T21:20:29.326Z,5.60
2019-04-01T21:22:56.386Z,6.03
2019-04-01T21:25:23.773Z,5.73
2019-04-01T21:27:51.073Z,6.03
2019-04-01T21:30:20.141Z,6.50
2019-04-01T21:32:47.707Z,8.53
2019-04-01T21:35:15.955Z,7.87
2019-04-01T21:37:43.122Z,8.23
2019-04-01T21:40:10.366Z,20.17
2019-04-01T21:42:37.618Z,15.17
2019-04-01T21:45:05.597Z,11.67
2019-04-01T21:47:33.075Z,11.70
2019-04-01T21:50:00.293Z,11.53
2019-04-01T21:52:28.057Z,10.97
2019-04-01T21:54:56.874Z,11.50
2019-04-01T21:57:24.570Z,11.07
2019-04-01T21:59:51.763Z,10.60
2019-04-01T22:02:19.047Z,9.83
2019-04-01T22:04:46.242Z,8.97
2019-04-01T22:07:13.518Z,8.63
2019-04-01T22:09:40.767Z,8.73
2019-04-01T22:12:08.232Z,8.43
2019-04-01T22:14:35.414Z,7.00
2019-04-01T22:17:02.912Z,7.87
2019-04-01T22:19:30.425Z,8.13
2019-04-01T22:22:00.977Z,6.83
2019-04-01T22:24:28.251Z,6.73
2019-04-01T22:26:56.106Z,7.00
2019-04-01T22:29:23.720Z,7.93
2019-04-01T22:31:50.862Z,7.53
2019-04-01T22:34:18.142Z,7.20
2019-04-01T22:36:45.668Z,8.27
2019-04-01T22:39:12.908Z,8.23
2019-04-01T22:41:41.702Z,7.53
2019-04-01T22:44:08.932Z,7.63
2019-04-01T22:46:36.065Z,7.03
2019-04-01T22:49:03.387Z,7.27
2019-04-01T22:51:30.573Z,7.27
2019-04-01T22:53:57.567Z,7.17
2019-04-01T22:56:24.674Z,7.60
2019-04-01T22:58:51.863Z,7.97
2019-04-01T23:01:19.292Z,6.30
2019-04-01T23:03:46.274Z,7.73
2019-04-01T23:06:13.189Z,7.60
2019-04-01T23:08:40.797Z,7.87
2019-04-01T23:11:08.102Z,7.43
2019-04-01T23:13:34.986Z,7.90
2019-04-01T23:16:02.043Z,7.50
2019-04-01T23:18:28.912Z,7.33
2019-04-01T23:20:55.823Z,7.60
2019-04-01T23:23:22.706Z,7.53
2019-04-01T23:25:49.604Z,6.87
2019-04-01T23:28:16.602Z,6.53
2019-04-01T23:30:43.538Z,7.50
2019-04-01T23:33:10.429Z,6.77
2019-04-01T23:35:37.290Z,6.83
2019-04-01T23:38:04.265Z,8.27
2019-04-01T23:40:31.359Z,7.03
2019-04-01T23:42:59.417Z,7.37
2019-04-01T23:45:26.304Z,6.93
2019-04-01T23:47:53.194Z,7.13
2019-04-01T23:50:22.197Z,6.90
2019-04-01T23:52:49.102Z,7.87
2019-04-01T23:55:16.011Z,7.83
2019-04-01T23:57:42.863Z,8.37
